createdAt,value
2022-08-11T00:01:16.234Z,42.70
2022-08-11T00:03:51.363Z,42.90
2022-08-11T00:06:27.796Z,42.90
2022-08-11T00:08:57.745Z,43.10
2022-08-11T00:11:38.299Z,43.30
2022-08-11T00:14:18.021Z,43.90
2022-08-11T00:16:56.770Z,43.60
2022-08-11T00:20:13.794Z,43.70
2022-08-11T00:22:24.170Z,43.70
2022-08-11T00:24:56.197Z,43.80
2022-08-11T00:27:40.593Z,44.40
2022-08-11T00:30:13.375Z,44.10
2022-08-11T00:32:45.614Z,44.10
2022-08-11T00:35:56.294Z,44.20
2022-08-11T00:38:08.556Z,44.50
2022-08-11T00:40:44.011Z,44.60
2022-08-11T00:43:25.092Z,44.70
2022-08-11T00:46:12.404Z,45.00
2022-08-11T00:48:59.169Z,45.20
2022-08-11T00:52:03.851Z,45.50
2022-08-11T00:55:34.339Z,45.70
2022-08-11T00:58:51.136Z,46.10
2022-08-11T01:01:40.578Z,46.20
2022-08-11T01:04:55.794Z,46.40
2022-08-11T01:08:24.185Z,46.50
2022-08-11T01:11:55.891Z,46.70
2022-08-11T01:14:54.656Z,46.90
2022-08-11T01:18:23.661Z,47.00
2022-08-11T01:21:39.837Z,47.20
2022-08-11T01:24:58.048Z,47.20
2022-08-11T01:28:41.908Z,47.30
2022-08-11T01:32:05.985Z,47.40
2022-08-11T01:35:31.882Z,47.60
2022-08-11T01:38:44.477Z,47.60
2022-08-11T01:42:20.294Z,47.80
2022-08-11T01:45:23.980Z,48.00
2022-08-11T01:48:06.396Z,48.00
2022-08-11T01:50:55.277Z,48.10
2022-08-11T01:53:35.803Z,48.30
2022-08-11T01:56:24.462Z,48.40
2022-08-11T01:59:10.004Z,48.50
2022-08-11T02:02:02.157Z,48.60
2022-08-11T02:04:37.048Z,48.70
2022-08-11T02:07:18.113Z,49.30
2022-08-11T02:10:29.630Z,48.80
2022-08-11T02:13:15.663Z,48.90
2022-08-11T02:15:51.317Z,49.00
2022-08-11T02:18:48.911Z,49.20
2022-08-11T02:21:48.131Z,49.30
2022-08-11T02:24:27.912Z,49.80
2022-08-11T02:27:15.008Z,49.50
2022-08-11T02:29:55.920Z,50.00
2022-08-11T02:32:51.389Z,50.20
2022-08-11T02:35:26.557Z,49.90
2022-08-11T02:38:13.349Z,50.00
2022-08-11T02:40:54.473Z,50.20
2022-08-11T02:43:48.006Z,50.30
2022-08-11T02:46:28.801Z,50.50
2022-08-11T02:49:31.625Z,50.60
2022-08-11T02:52:09.752Z,50.80
2022-08-11T02:54:46.106Z,50.80
2022-08-11T02:57:34.966Z,51.10
2022-08-11T03:00:09.203Z,51.30
2022-08-11T03:02:52.624Z,51.30
2022-08-11T03:05:43.358Z,51.40
2022-08-11T03:08:37.308Z,51.70
2022-08-11T03:11:30.864Z,52.20
2022-08-11T03:14:38.077Z,51.80
2022-08-11T03:17:22.833Z,52.00
2022-08-11T03:20:05.756Z,52.10
2022-08-11T03:22:41.591Z,52.60
2022-08-11T03:25:19.374Z,52.30
2022-08-11T03:27:58.976Z,52.90
2022-08-11T03:30:45.672Z,52.70
2022-08-11T03:33:42.030Z,52.80
2022-08-11T03:36:33.777Z,53.00
2022-08-11T03:39:32.157Z,53.10
2022-08-11T03:42:12.490Z,53.20
2022-08-11T03:45:01.053Z,53.30
2022-08-11T03:48:02.109Z,53.40
2022-08-11T03:50:54.969Z,53.50
2022-08-11T03:53:45.295Z,53.60
2022-08-11T03:57:10.964Z,53.60
2022-08-11T04:00:20.540Z,53.70
2022-08-11T04:03:41.730Z,53.70
2022-08-11T04:06:47.551Z,53.80
2022-08-11T04:10:08.463Z,53.90
2022-08-11T04:13:14.185Z,53.90
2022-08-11T04:16:24.354Z,53.80
2022-08-11T04:19:51.540Z,54.40
2022-08-11T04:23:10.161Z,53.90
2022-08-11T04:26:27.163Z,54.00
2022-08-11T04:29:12.008Z,54.00
2022-08-11T04:31:55.348Z,54.00
2022-08-11T04:34:52.752Z,54.10
2022-08-11T04:37:53.701Z,54.10
2022-08-11T04:41:16.370Z,54.10
2022-08-11T04:44:31.779Z,54.20
2022-08-11T04:48:03.759Z,54.20
2022-08-11T04:51:17.222Z,54.10
2022-08-11T04:54:19.336Z,54.10
2022-08-11T04:57:09.530Z,54.20
2022-08-11T05:00:31.673Z,54.00
2022-08-11T05:03:57.214Z,54.00
2022-08-11T05:07:21.935Z,54.00
2022-08-11T05:10:15.462Z,54.00
2022-08-11T05:12:50.872Z,53.90
2022-08-11T05:15:49.527Z,53.90
2022-08-11T05:18:42.788Z,53.80
2022-08-11T05:21:44.414Z,53.90
2022-08-11T05:24:39.862Z,53.80
2022-08-11T05:27:28.525Z,53.80
2022-08-11T05:30:20.954Z,53.80
2022-08-11T05:33:20.421Z,53.70
2022-08-11T05:36:00.131Z,53.70
2022-08-11T05:38:53.511Z,53.70
2022-08-11T05:41:45.603Z,53.70
2022-08-11T05:44:39.071Z,53.80
2022-08-11T05:47:27.557Z,53.70
2022-08-11T05:50:15.264Z,53.70
2022-08-11T05:53:09.158Z,53.80
2022-08-11T05:56:02.876Z,53.80
2022-08-11T05:58:42.806Z,53.70
2022-08-11T06:01:14.119Z,53.80
2022-08-11T06:04:04.185Z,53.70
2022-08-11T06:06:33.318Z,53.60
2022-08-11T06:09:02.907Z,53.60
2022-08-11T06:11:43.527Z,53.60
2022-08-11T06:14:15.970Z,53.50
2022-08-11T06:16:49.572Z,53.40
2022-08-11T06:19:23.130Z,53.40
2022-08-11T06:21:53.255Z,53.90
2022-08-11T06:24:22.925Z,53.20
2022-08-11T06:27:12.645Z,53.70
2022-08-11T06:29:54.355Z,53.10
2022-08-11T06:32:28.309Z,53.10
2022-08-11T06:35:16.909Z,52.90
2022-08-11T06:38:03.522Z,52.90
2022-08-11T06:40:42.985Z,52.70
2022-08-11T06:43:19.980Z,52.60
2022-08-11T06:46:03.328Z,52.50
2022-08-11T06:48:34.679Z,52.90
2022-08-11T06:51:14.609Z,52.80
2022-08-11T06:54:03.872Z,52.70
2022-08-11T06:57:28.300Z,52.50
2022-08-11T07:00:02.173Z,52.50
2022-08-11T07:02:35.608Z,51.70
2022-08-11T07:05:11.004Z,52.10
2022-08-11T07:08:52.668Z,51.50
2022-08-11T07:12:13.187Z,51.90
2022-08-11T07:15:07.693Z,51.80
2022-08-11T07:17:49.416Z,51.60
2022-08-11T07:20:37.239Z,51.50
2022-08-11T07:23:26.802Z,51.30
2022-08-11T07:26:15.170Z,51.30
2022-08-11T07:28:58.642Z,50.70
2022-08-11T07:31:42.063Z,49.20
2022-08-11T07:34:28.061Z,47.80
2022-08-11T07:37:00.305Z,46.70
2022-08-11T07:39:32.872Z,45.90
2022-08-11T07:42:07.128Z,45.10
2022-08-11T07:44:58.757Z,44.60
2022-08-11T07:47:55.146Z,43.90
2022-08-11T07:50:43.201Z,43.40
2022-08-11T07:53:12.890Z,43.00
2022-08-11T07:55:50.919Z,42.70
2022-08-11T07:58:45.509Z,42.30
2022-08-11T08:01:41.738Z,41.70
2022-08-11T08:04:31.386Z,41.30
2022-08-11T08:07:22.169Z,40.80
2022-08-11T08:10:09.780Z,40.50
2022-08-11T08:13:00.355Z,40.10
2022-08-11T08:15:48.422Z,39.80
2022-08-11T08:18:26.487Z,39.50
2022-08-11T08:21:11.979Z,39.30
2022-08-11T08:23:44.175Z,39.00
2022-08-11T08:26:35.162Z,38.90
2022-08-11T08:29:26.056Z,38.50
2022-08-11T08:31:57.231Z,37.70
2022-08-11T08:34:26.483Z,38.00
2022-08-11T08:36:55.800Z,37.60
2022-08-11T08:39:25.940Z,37.10
2022-08-11T08:42:00.358Z,36.90
2022-08-11T08:44:40.529Z,36.70
2022-08-11T08:47:15.101Z,36.40
2022-08-11T08:50:08.236Z,36.30
2022-08-11T08:52:43.895Z,35.90
2022-08-11T08:55:21.612Z,35.70
2022-08-11T08:57:53.689Z,35.80
2022-08-11T09:00:23.852Z,35.20
2022-08-11T09:02:53.590Z,34.90
2022-08-11T09:05:23.393Z,34.60
2022-08-11T09:07:58.038Z,34.30
2022-08-11T09:10:30.945Z,34.00
2022-08-11T09:13:00.987Z,33.90
2022-08-11T09:15:30.747Z,33.70
2022-08-11T09:18:06.012Z,33.40
2022-08-11T09:20:38.583Z,33.20
2022-08-11T09:26:41.711Z,33.00
2022-08-11T09:29:12.422Z,32.80
2022-08-11T09:31:41.821Z,32.40
2022-08-11T09:34:11.535Z,32.20
2022-08-11T09:36:59.916Z,32.00
2022-08-11T09:39:48.653Z,31.70
2022-08-11T09:42:23.108Z,31.40
2022-08-11T09:44:53.255Z,31.70
2022-08-11T09:47:26.590Z,31.50
2022-08-11T09:50:01.363Z,31.30
2022-08-11T09:52:35.682Z,31.10
2022-08-11T09:55:11.112Z,31.00
2022-08-11T09:58:04.383Z,30.80
2022-08-11T10:00:40.195Z,30.30
2022-08-11T10:03:13.261Z,30.10
2022-08-11T10:06:08.010Z,30.00
2022-08-11T10:08:39.133Z,29.80
2022-08-11T10:11:12.052Z,30.00
2022-08-11T10:14:32.910Z,29.80
2022-08-11T10:16:53.894Z,29.70
2022-08-11T10:19:23.117Z,29.70
2022-08-11T10:22:09.325Z,29.50
2022-08-11T10:24:56.265Z,29.30
2022-08-11T10:27:34.790Z,29.20
2022-08-11T10:30:32.893Z,29.50
2022-08-11T10:33:37.048Z,29.20
2022-08-11T10:36:16.519Z,29.00
2022-08-11T10:38:50.344Z,28.70
2022-08-11T10:41:37.125Z,28.70
2022-08-11T10:44:25.657Z,28.70
2022-08-11T10:47:13.318Z,28.60
2022-08-11T10:49:42.314Z,28.50
2022-08-11T10:52:29.603Z,28.40
2022-08-11T10:55:15.969Z,28.30
2022-08-11T10:58:04.727Z,28.20
2022-08-11T11:00:34.977Z,28.10
2022-08-11T11:03:22.611Z,28.20
2022-08-11T11:06:27.219Z,28.10
2022-08-11T11:09:00.016Z,28.00
2022-08-11T11:11:56.446Z,28.10
2022-08-11T11:14:50.752Z,28.20
2022-08-11T11:17:48.570Z,28.20
2022-08-11T11:20:34.736Z,28.20
2022-08-11T11:23:16.707Z,28.20
2022-08-11T11:26:11.314Z,28.10
2022-08-11T11:29:21.443Z,28.10
2022-08-11T11:32:07.551Z,28.10
2022-08-11T11:34:59.351Z,28.10
2022-08-11T11:37:34.549Z,28.00
2022-08-11T11:40:04.318Z,27.90
2022-08-11T11:42:32.963Z,27.80
2022-08-11T11:45:01.843Z,27.80
2022-08-11T11:47:31.387Z,27.70
2022-08-11T11:50:00.233Z,27.70
2022-08-11T11:52:31.372Z,27.70
2022-08-11T11:55:00.946Z,27.50
2022-08-11T11:57:59.388Z,27.60
2022-08-11T12:00:48.888Z,27.50
2022-08-11T12:03:19.080Z,27.50
2022-08-11T12:05:48.208Z,27.40
2022-08-11T12:08:22.392Z,27.40
2022-08-11T12:11:16.166Z,27.30
2022-08-11T12:13:47.196Z,27.20
2022-08-11T12:16:32.871Z,27.20
2022-08-11T12:19:07.126Z,27.30
2022-08-11T12:21:37.560Z,27.30
2022-08-11T12:24:29.123Z,27.40
2022-08-11T12:27:18.244Z,27.10
2022-08-11T12:29:55.040Z,27.20
2022-08-11T12:32:26.863Z,27.00
2022-08-11T12:34:56.928Z,26.90
2022-08-11T12:37:31.284Z,26.70
2022-08-11T12:40:43.099Z,26.80
2022-08-11T12:43:37.986Z,26.80
2022-08-11T12:46:11.142Z,26.70
2022-08-11T12:49:05.492Z,26.80
2022-08-11T12:52:13.915Z,26.70
2022-08-11T12:54:57.258Z,26.50
2022-08-11T12:57:54.574Z,26.50
2022-08-11T13:00:42.410Z,26.40
2022-08-11T13:03:30.517Z,26.30
2022-08-11T13:06:02.544Z,26.30
2022-08-11T13:08:35.398Z,26.30
2022-08-11T13:11:22.925Z,26.10
2022-08-11T13:13:57.945Z,26.00
2022-08-11T13:16:31.108Z,26.00
2022-08-11T13:19:01.860Z,25.90
2022-08-11T13:21:31.632Z,25.80
2022-08-11T13:24:03.588Z,25.70
2022-08-11T13:26:49.747Z,25.70
2022-08-11T13:29:23.837Z,25.50
2022-08-11T13:31:54.400Z,25.50
2022-08-11T13:34:26.814Z,25.40
2022-08-11T13:36:59.315Z,25.30
2022-08-11T13:39:31.056Z,25.30
2022-08-11T13:42:02.961Z,25.20
2022-08-11T13:44:37.798Z,25.10
2022-08-11T13:47:09.226Z,25.10
2022-08-11T13:49:40.396Z,25.20
2022-08-11T13:52:14.793Z,25.00
2022-08-11T13:54:44.995Z,24.90
2022-08-11T13:58:07.706Z,24.90
2022-08-11T14:00:28.136Z,24.90
2022-08-11T14:02:58.629Z,24.90
2022-08-11T14:05:30.242Z,24.80
2022-08-11T14:08:06.038Z,24.80
2022-08-11T14:10:36.780Z,24.70
2022-08-11T14:13:29.141Z,24.70
2022-08-11T14:16:14.117Z,24.70
2022-08-11T14:18:51.333Z,24.80
2022-08-11T14:21:40.161Z,24.70
2022-08-11T14:24:11.533Z,24.70
2022-08-11T14:26:44.277Z,24.60
2022-08-11T14:29:17.245Z,24.50
2022-08-11T14:31:50.177Z,24.50
2022-08-11T14:34:22.240Z,24.50
2022-08-11T14:36:53.764Z,24.50
2022-08-11T14:39:25.319Z,24.50
2022-08-11T14:42:14.436Z,24.50
2022-08-11T14:45:05.060Z,24.30
2022-08-11T14:47:37.526Z,24.50
2022-08-11T14:50:12.473Z,24.40
2022-08-11T14:52:50.081Z,24.40
2022-08-11T14:55:37.968Z,24.40
2022-08-11T14:58:09.802Z,24.40
2022-08-11T15:00:40.349Z,24.50
2022-08-11T15:03:13.403Z,24.40
2022-08-11T15:05:56.318Z,24.40
2022-08-11T15:08:50.217Z,24.30
2022-08-11T15:11:39.292Z,24.40
2022-08-11T15:14:10.932Z,24.40
2022-08-11T15:17:01.484Z,24.50
2022-08-11T15:19:40.404Z,24.70
2022-08-11T15:22:29.152Z,24.30
2022-08-11T15:25:00.103Z,24.40
2022-08-11T15:27:49.505Z,24.30
2022-08-11T15:30:35.667Z,24.20
2022-08-11T15:33:30.039Z,24.30
2022-08-11T15:36:20.549Z,24.30
2022-08-11T15:38:55.762Z,24.20
2022-08-11T15:41:58.512Z,24.20
2022-08-11T15:45:05.471Z,24.10
2022-08-11T15:47:41.719Z,24.00
2022-08-11T15:50:17.365Z,24.10
2022-08-11T15:52:54.462Z,23.90
2022-08-11T15:55:24.571Z,24.00
2022-08-11T15:58:14.120Z,24.00
2022-08-11T16:01:08.628Z,24.00
2022-08-11T16:04:09.080Z,24.10
2022-08-11T16:06:47.812Z,24.00
2022-08-11T16:09:46.965Z,24.00
2022-08-11T16:12:22.915Z,24.00
2022-08-11T16:15:12.905Z,23.90
2022-08-11T16:17:45.953Z,23.70
2022-08-11T16:20:18.766Z,23.60
2022-08-11T16:22:57.190Z,23.90
2022-08-11T16:27:03.990Z,23.90
2022-08-11T16:28:26.405Z,23.90
2022-08-11T16:30:57.655Z,24.30
2022-08-11T16:33:49.422Z,24.00
2022-08-11T16:36:34.387Z,24.10
2022-08-11T16:39:04.090Z,23.80
2022-08-11T16:41:55.961Z,23.90
2022-08-11T16:44:43.562Z,24.20
2022-08-11T16:47:17.653Z,24.10
2022-08-11T16:50:08.721Z,24.10
2022-08-11T16:52:37.337Z,24.10
2022-08-11T16:55:07.221Z,24.40
2022-08-11T16:57:56.233Z,24.20
2022-08-11T17:00:25.887Z,24.50
2022-08-11T17:03:28.194Z,24.50
2022-08-11T17:06:14.217Z,24.60
2022-08-11T17:09:05.861Z,24.60
2022-08-11T17:11:58.864Z,24.30
2022-08-11T17:14:38.339Z,24.70
2022-08-11T17:17:13.548Z,24.80
2022-08-11T17:20:42.317Z,24.80
2022-08-11T17:22:58.426Z,25.00
2022-08-11T17:25:29.298Z,25.10
2022-08-11T17:28:00.672Z,25.20
2022-08-11T17:30:45.532Z,25.40
2022-08-11T17:33:33.250Z,25.20
2022-08-11T17:36:03.521Z,25.20
2022-08-11T17:38:34.597Z,25.20
2022-08-11T17:41:23.214Z,25.20
2022-08-11T17:44:12.365Z,25.30
2022-08-11T17:47:05.657Z,25.30
2022-08-11T17:49:38.035Z,25.30
2022-08-11T17:52:25.924Z,25.40
2022-08-11T17:55:16.818Z,25.50
2022-08-11T17:58:23.109Z,25.70
2022-08-11T18:00:52.498Z,25.90
2022-08-11T18:03:39.608Z,26.10
2022-08-11T18:06:12.888Z,26.30
2022-08-11T18:09:02.629Z,26.40
2022-08-11T18:12:11.132Z,26.40
2022-08-11T18:15:00.738Z,26.60
2022-08-11T18:20:34.365Z,26.70
2022-08-11T18:23:41.693Z,26.70
2022-08-11T18:26:36.498Z,26.80
2022-08-11T18:29:25.774Z,26.90
2022-08-11T18:32:20.723Z,26.90
2022-08-11T18:35:10.666Z,27.00
2022-08-11T18:38:05.746Z,27.10
2022-08-11T18:40:54.304Z,27.10
2022-08-11T18:43:44.398Z,27.20
2022-08-11T18:46:36.938Z,27.30
2022-08-11T18:50:01.771Z,27.30
2022-08-11T18:52:41.199Z,27.40
2022-08-11T18:55:34.809Z,27.50
2022-08-11T18:58:24.688Z,27.60
2022-08-11T19:01:16.762Z,27.70
2022-08-11T19:04:11.741Z,27.80
2022-08-11T19:07:04.080Z,27.80
2022-08-11T19:09:52.347Z,27.90
2022-08-11T19:12:43.933Z,28.00
2022-08-11T19:15:31.746Z,28.10
2022-08-11T19:18:20.168Z,28.20
2022-08-11T19:21:06.876Z,28.30
2022-08-11T19:23:57.521Z,28.40
2022-08-11T19:26:44.575Z,28.50
2022-08-11T19:30:07.644Z,28.60
2022-08-11T19:32:40.454Z,28.70
2022-08-11T19:35:28.385Z,28.90
2022-08-11T19:38:17.132Z,29.10
2022-08-11T19:41:03.429Z,29.20
2022-08-11T19:43:51.428Z,29.30
2022-08-11T19:46:42.094Z,29.40
2022-08-11T19:49:30.784Z,29.50
2022-08-11T19:52:18.410Z,29.60
2022-08-11T19:55:05.725Z,29.70
2022-08-11T19:57:54.842Z,29.90
2022-08-11T20:00:42.117Z,29.90
2022-08-11T20:03:31.673Z,30.00
2022-08-11T20:06:21.682Z,30.50
2022-08-11T20:09:11.899Z,30.30
2022-08-11T20:12:01.631Z,31.40
2022-08-11T20:14:52.303Z,31.00
2022-08-11T20:17:43.134Z,31.20
2022-08-11T20:20:33.509Z,30.90
2022-08-11T20:23:24.845Z,31.20
2022-08-11T20:26:30.101Z,31.30
2022-08-11T20:29:18.795Z,31.50
2022-08-11T20:32:09.263Z,31.60
2022-08-11T20:34:58.743Z,31.70
2022-08-11T20:37:51.036Z,32.30
2022-08-11T20:40:42.481Z,32.10
2022-08-11T20:44:07.657Z,32.70
2022-08-11T20:49:53.625Z,32.50
2022-08-11T20:52:48.408Z,32.60
2022-08-11T20:55:51.634Z,33.20
2022-08-11T21:01:47.114Z,33.10
2022-08-11T21:04:55.086Z,33.20
2022-08-11T21:07:55.178Z,33.30
2022-08-11T21:10:50.604Z,33.40
2022-08-11T21:13:42.083Z,33.60
2022-08-11T21:16:32.193Z,33.60
2022-08-11T21:20:00.793Z,33.80
2022-08-11T21:22:58.565Z,34.10
2022-08-11T21:25:48.197Z,34.40
2022-08-11T21:28:36.969Z,34.60
2022-08-11T21:31:25.275Z,34.70
2022-08-11T21:34:12.268Z,34.90
2022-08-11T21:37:00.973Z,35.10
2022-08-11T21:39:47.847Z,35.60
2022-08-11T21:42:38.109Z,35.30
2022-08-11T21:45:27.688Z,35.10
2022-08-11T21:48:15.366Z,35.60
2022-08-11T21:51:01.456Z,35.70
2022-08-11T21:53:47.777Z,35.90
2022-08-11T21:56:34.422Z,35.90
2022-08-11T21:59:21.972Z,36.10
2022-08-11T22:02:12.559Z,36.20
2022-08-11T22:05:00.174Z,36.30
2022-08-11T22:07:46.971Z,36.50
2022-08-11T22:10:40.689Z,36.70
2022-08-11T22:13:31.135Z,36.90
2022-08-11T22:16:19.294Z,37.00
2022-08-11T22:19:08.240Z,37.10
2022-08-11T22:22:02.910Z,37.30
2022-08-11T22:24:52.755Z,37.40
2022-08-11T22:27:40.041Z,37.50
2022-08-11T22:30:29.694Z,37.60
2022-08-11T22:33:25.615Z,37.70
2022-08-11T22:36:14.766Z,37.90
2022-08-11T22:39:03.453Z,37.90
2022-08-11T22:41:49.639Z,38.10
2022-08-11T22:47:23.585Z,38.20
2022-08-11T22:50:16.881Z,38.30
2022-08-11T22:53:03.630Z,38.50
2022-08-11T22:55:50.300Z,38.50
2022-08-11T22:58:40.264Z,38.60
2022-08-11T23:01:26.512Z,39.50
2022-08-11T23:04:15.073Z,38.70
2022-08-11T23:07:03.034Z,38.80
2022-08-11T23:09:49.646Z,38.70
2022-08-11T23:12:36.426Z,38.80
2022-08-11T23:15:24.517Z,38.80
2022-08-11T23:18:10.754Z,38.80
2022-08-11T23:20:58.930Z,38.80
2022-08-11T23:23:48.089Z,38.90
2022-08-11T23:26:36.679Z,38.80
2022-08-11T23:29:25.170Z,38.90
2022-08-11T23:32:12.422Z,38.80
2022-08-11T23:35:37.099Z,38.80
2022-08-11T23:38:09.065Z,38.70
2022-08-11T23:40:58.530Z,38.80
2022-08-11T23:43:44.229Z,38.80
2022-08-11T23:49:20.567Z,38.90
2022-08-11T23:52:07.623Z,39.00
2022-08-11T23:54:54.368Z,40.10
2022-08-11T23:57:47.811Z,39.20
